createdAt,value
2023-05-03T00:00:08.298Z,8.95
2023-05-03T00:02:12.145Z,8.88
2023-05-03T00:04:16.979Z,8.82
2023-05-03T00:06:19.861Z,8.96
2023-05-03T00:08:22.671Z,7.96
2023-05-03T00:10:25.605Z,8.42
2023-05-03T00:12:28.425Z,8.93
2023-05-03T00:14:31.294Z,8.99
2023-05-03T00:16:34.157Z,9.06
2023-05-03T00:18:37.029Z,9.00
2023-05-03T00:20:41.179Z,8.70
2023-05-03T00:22:44.052Z,6.84
2023-05-03T00:24:46.859Z,9.03
2023-05-03T00:26:49.628Z,9.09
2023-05-03T00:28:52.497Z,9.12
2023-05-03T00:30:55.418Z,8.96
2023-05-03T00:32:58.854Z,9.17
2023-05-03T00:35:01.946Z,8.60
2023-05-03T00:37:06.651Z,9.39
2023-05-03T00:39:09.775Z,9.23
2023-05-03T00:41:13.082Z,8.16
2023-05-03T00:43:15.914Z,8.98
2023-05-03T00:45:20.012Z,8.90
2023-05-03T00:47:23.325Z,9.24
2023-05-03T00:49:26.570Z,9.33
2023-05-03T00:51:29.431Z,6.87
2023-05-03T00:53:34.668Z,8.51
2023-05-03T00:55:37.749Z,9.04
2023-05-03T00:57:40.883Z,8.94
2023-05-03T00:59:44.933Z,7.07
2023-05-03T01:01:50.330Z,8.52
2023-05-03T01:03:53.745Z,7.53
2023-05-03T01:06:07.931Z,8.44
2023-05-03T01:08:16.489Z,8.76
2023-05-03T01:10:26.990Z,8.24
2023-05-03T01:12:39.721Z,8.80
2023-05-03T01:14:48.079Z,7.59
2023-05-03T01:16:55.055Z,8.46
2023-05-03T01:19:02.802Z,7.41
2023-05-03T01:21:06.828Z,8.24
2023-05-03T01:23:15.676Z,7.86
2023-05-03T01:25:19.841Z,8.09
2023-05-03T01:27:22.619Z,7.87
2023-05-03T01:29:25.481Z,7.24
2023-05-03T01:31:34.046Z,8.16
2023-05-03T01:33:45.703Z,8.07
2023-05-03T01:35:56.003Z,8.08
2023-05-03T01:37:58.835Z,8.17
2023-05-03T01:40:04.996Z,8.22
2023-05-03T01:42:09.920Z,8.10
2023-05-03T01:44:13.167Z,7.98
2023-05-03T01:46:16.425Z,6.76
2023-05-03T01:48:21.004Z,7.92
2023-05-03T01:50:24.111Z,7.81
2023-05-03T01:52:27.053Z,7.66
2023-05-03T01:54:29.868Z,7.85
2023-05-03T01:56:36.120Z,7.61
2023-05-03T01:58:40.271Z,6.10
2023-05-03T02:00:43.208Z,7.10
2023-05-03T02:02:46.263Z,7.58
2023-05-03T02:04:49.061Z,7.46
2023-05-03T02:06:52.011Z,7.61
2023-05-03T02:08:55.046Z,6.73
2023-05-03T02:10:57.826Z,7.68
2023-05-03T02:13:00.675Z,7.91
2023-05-03T02:15:05.632Z,4.73
2023-05-03T02:17:08.855Z,6.48
2023-05-03T02:19:11.674Z,7.71
2023-05-03T02:21:14.793Z,6.50
2023-05-03T02:23:17.651Z,7.69
2023-05-03T02:25:20.666Z,7.74
2023-05-03T02:27:23.566Z,5.03
2023-05-03T02:29:27.279Z,7.63
2023-05-03T02:31:31.928Z,7.23
2023-05-03T02:33:35.468Z,7.35
2023-05-03T02:35:38.607Z,7.72
2023-05-03T02:37:43.098Z,7.77
2023-05-03T02:39:48.253Z,7.61
2023-05-03T02:41:52.151Z,7.55
2023-05-03T02:43:54.998Z,7.43
2023-05-03T02:45:58.199Z,7.66
2023-05-03T02:48:03.435Z,6.92
2023-05-03T02:50:07.903Z,6.27
2023-05-03T02:52:14.205Z,6.95
2023-05-03T02:54:16.980Z,7.47
2023-05-03T02:56:20.886Z,7.50
2023-05-03T02:58:23.739Z,6.58
2023-05-03T03:00:26.780Z,7.32
2023-05-03T03:02:29.741Z,7.98
2023-05-03T03:04:34.268Z,6.83
2023-05-03T03:06:37.686Z,6.41
2023-05-03T03:08:40.628Z,8.20
2023-05-03T03:10:44.340Z,7.99
2023-05-03T03:12:48.332Z,7.43
2023-05-03T03:14:59.954Z,6.92
2023-05-03T03:17:08.965Z,6.48
2023-05-03T03:19:11.858Z,8.01
2023-05-03T03:21:16.056Z,7.90
2023-05-03T03:23:19.447Z,7.97
2023-05-03T03:25:23.144Z,7.81
2023-05-03T03:27:26.181Z,5.73
2023-05-03T03:29:31.301Z,5.20
2023-05-03T03:31:34.611Z,4.33
2023-05-03T03:33:37.883Z,7.12
2023-05-03T03:35:47.033Z,7.44
2023-05-03T03:37:51.950Z,7.40
2023-05-03T03:39:56.423Z,7.98
2023-05-03T03:42:00.196Z,7.82
2023-05-03T03:44:03.012Z,7.82
2023-05-03T03:46:06.087Z,7.87
2023-05-03T03:48:10.235Z,7.74
2023-05-03T03:50:13.182Z,7.93
2023-05-03T03:52:16.125Z,6.13
2023-05-03T03:54:20.324Z,6.84
2023-05-03T03:56:26.283Z,7.85
2023-05-03T03:58:31.174Z,7.99
2023-05-03T04:00:35.629Z,7.62
2023-05-03T04:02:45.322Z,7.74
2023-05-03T04:04:53.504Z,7.75
2023-05-03T04:06:56.603Z,7.75
2023-05-03T04:09:02.155Z,6.98
2023-05-03T04:11:13.048Z,7.73
2023-05-03T04:13:22.707Z,7.79
2023-05-03T04:15:28.034Z,7.79
2023-05-03T04:17:34.985Z,6.84
2023-05-03T04:19:41.421Z,7.93
2023-05-03T04:21:44.627Z,8.14
2023-05-03T04:23:47.423Z,8.10
2023-05-03T04:25:52.721Z,7.98
2023-05-03T04:27:58.324Z,7.88
2023-05-03T04:30:02.791Z,8.02
2023-05-03T04:32:06.790Z,6.80
2023-05-03T04:34:14.883Z,7.96
2023-05-03T04:36:20.000Z,7.91
2023-05-03T04:38:24.297Z,8.07
2023-05-03T04:40:27.641Z,8.04
2023-05-03T04:42:43.715Z,7.85
2023-05-03T04:44:48.229Z,8.05
2023-05-03T04:46:51.483Z,8.14
2023-05-03T04:48:54.658Z,8.30
2023-05-03T04:50:58.134Z,8.25
2023-05-03T04:53:01.248Z,8.27
2023-05-03T04:55:06.305Z,8.30
2023-05-03T04:57:10.255Z,8.39
2023-05-03T04:59:13.139Z,8.10
2023-05-03T05:01:18.486Z,8.30
2023-05-03T05:03:22.663Z,7.38
2023-05-03T05:05:26.613Z,8.13
2023-05-03T05:07:29.543Z,8.26
2023-05-03T05:09:32.374Z,8.04
2023-05-03T05:11:37.700Z,8.07
2023-05-03T05:13:40.576Z,8.11
2023-05-03T05:15:43.388Z,6.66
2023-05-03T05:17:49.935Z,8.03
2023-05-03T05:19:55.196Z,8.21
2023-05-03T05:21:58.051Z,8.54
2023-05-03T05:24:07.246Z,8.38
2023-05-03T05:26:10.454Z,9.23
2023-05-03T05:28:14.309Z,9.16
2023-05-03T05:30:17.534Z,8.80
2023-05-03T05:32:20.374Z,9.44
2023-05-03T05:34:24.622Z,9.30
2023-05-03T05:36:27.639Z,8.93
2023-05-03T05:38:31.049Z,8.95
2023-05-03T05:40:35.791Z,9.33
2023-05-03T05:42:38.686Z,9.38
2023-05-03T05:44:43.150Z,9.37
2023-05-03T05:46:46.620Z,9.42
2023-05-03T05:48:51.316Z,9.10
2023-05-03T05:50:56.542Z,8.65
2023-05-03T05:52:59.643Z,9.26
2023-05-03T05:55:07.735Z,9.45
2023-05-03T05:57:10.760Z,9.56
2023-05-03T05:59:13.984Z,9.24
2023-05-03T06:01:17.511Z,9.44
2023-05-03T06:03:20.527Z,9.72
2023-05-03T06:05:26.152Z,9.49
2023-05-03T06:07:31.168Z,9.68
2023-05-03T06:09:34.103Z,9.77
2023-05-03T06:11:39.277Z,9.49
2023-05-03T06:13:43.827Z,9.34
2023-05-03T06:15:48.859Z,9.63
2023-05-03T06:17:51.725Z,9.75
2023-05-03T06:19:54.523Z,9.60
2023-05-03T06:21:57.812Z,9.90
2023-05-03T06:24:02.741Z,9.21
2023-05-03T06:26:05.511Z,9.16
2023-05-03T06:28:09.190Z,9.10
2023-05-03T06:30:13.831Z,9.37
2023-05-03T06:32:17.692Z,9.38
2023-05-03T06:34:21.722Z,9.41
2023-05-03T06:36:27.622Z,8.44
2023-05-03T06:38:30.416Z,9.34
2023-05-03T06:40:35.986Z,8.29
2023-05-03T06:42:40.574Z,9.07
2023-05-03T06:44:48.243Z,8.82
2023-05-03T06:46:51.169Z,8.05
2023-05-03T06:48:56.298Z,8.88
2023-05-03T06:50:59.113Z,9.12
2023-05-03T06:53:01.909Z,8.96
2023-05-03T06:55:06.055Z,9.43
2023-05-03T06:57:10.470Z,8.74
2023-05-03T06:59:13.591Z,9.00
2023-05-03T07:01:17.488Z,9.66
2023-05-03T07:03:20.305Z,9.91
2023-05-03T07:05:23.165Z,10.02
2023-05-03T07:07:25.892Z,9.55
2023-05-03T07:09:42.283Z,10.10
2023-05-03T07:11:50.388Z,10.32
2023-05-03T07:13:55.550Z,10.04
2023-05-03T07:15:59.890Z,9.69
2023-05-03T07:18:04.579Z,9.13
2023-05-03T07:20:08.782Z,9.81
2023-05-03T07:22:11.911Z,9.48
2023-05-03T07:24:14.856Z,9.84
2023-05-03T07:26:17.651Z,9.76
2023-05-03T07:28:20.708Z,9.96
2023-05-03T07:30:25.208Z,10.48
2023-05-03T07:32:28.065Z,10.65
2023-05-03T07:34:32.651Z,10.34
2023-05-03T07:36:35.443Z,10.73
2023-05-03T07:38:38.185Z,10.88
2023-05-03T07:40:42.179Z,10.59
2023-05-03T07:42:44.954Z,10.53
2023-05-03T07:44:47.721Z,11.28
2023-05-03T07:46:51.887Z,10.46
2023-05-03T07:48:54.728Z,11.31
2023-05-03T07:50:57.509Z,11.46
2023-05-03T07:53:00.342Z,11.55
2023-05-03T07:55:03.411Z,11.62
2023-05-03T07:57:07.283Z,11.47
2023-05-03T07:59:10.697Z,11.26
2023-05-03T08:01:13.548Z,11.18
2023-05-03T08:03:17.850Z,11.22
2023-05-03T08:05:20.889Z,10.69
2023-05-03T08:07:23.968Z,10.68
2023-05-03T08:09:28.184Z,10.35
2023-05-03T08:11:31.115Z,11.10
2023-05-03T08:13:33.940Z,10.85
2023-05-03T08:15:36.769Z,11.83
2023-05-03T08:17:43.535Z,11.89
2023-05-03T08:19:47.755Z,11.87
2023-05-03T08:21:52.342Z,11.68
2023-05-03T08:23:56.060Z,12.09
2023-05-03T08:26:00.253Z,12.62
2023-05-03T08:28:03.074Z,13.27
2023-05-03T08:30:07.071Z,13.56
2023-05-03T08:32:09.916Z,12.93
2023-05-03T08:34:13.191Z,13.57
2023-05-03T08:36:17.411Z,12.14
2023-05-03T08:38:20.132Z,11.39
2023-05-03T08:40:23.970Z,12.48
2023-05-03T08:42:30.613Z,12.41
2023-05-03T08:44:37.889Z,12.96
2023-05-03T08:46:40.809Z,13.22
2023-05-03T08:48:44.494Z,13.39
2023-05-03T08:50:47.305Z,14.00
2023-05-03T08:52:51.646Z,13.98
2023-05-03T08:54:54.391Z,14.12
2023-05-03T08:56:57.203Z,14.53
2023-05-03T08:59:07.278Z,13.30
2023-05-03T09:01:10.928Z,14.35
2023-05-03T09:03:13.834Z,14.30
2023-05-03T09:05:38.946Z,14.23
2023-05-03T09:07:41.865Z,14.89
2023-05-03T09:09:47.301Z,15.00
2023-05-03T09:11:50.391Z,14.55
2023-05-03T09:13:53.926Z,13.06
2023-05-03T09:15:58.076Z,14.72
2023-05-03T09:18:11.853Z,14.97
2023-05-03T09:20:14.738Z,14.53
2023-05-03T09:22:17.584Z,13.93
2023-05-03T09:24:21.447Z,14.43
2023-05-03T09:26:34.063Z,14.52
2023-05-03T09:28:42.847Z,15.12
2023-05-03T09:30:46.487Z,14.74
2023-05-03T09:32:49.797Z,15.54
2023-05-03T09:34:52.669Z,15.18
2023-05-03T09:36:56.274Z,15.64
2023-05-03T09:38:59.002Z,15.22
2023-05-03T09:41:02.581Z,14.47
2023-05-03T09:43:11.528Z,15.33
2023-05-03T09:45:24.818Z,16.08
2023-05-03T09:47:31.787Z,16.53
2023-05-03T09:49:36.899Z,16.19
2023-05-03T09:51:41.617Z,16.00
2023-05-03T09:53:44.318Z,16.56
2023-05-03T09:55:48.824Z,16.98
2023-05-03T09:57:56.318Z,16.67
2023-05-03T10:00:00.407Z,15.92
2023-05-03T10:02:05.502Z,16.43
2023-05-03T10:04:09.417Z,17.21
2023-05-03T10:06:23.640Z,17.12
2023-05-03T10:08:34.111Z,17.42
2023-05-03T10:10:37.614Z,17.70
2023-05-03T10:12:40.588Z,17.16
2023-05-03T10:14:45.588Z,17.63
2023-05-03T10:16:52.714Z,17.33
2023-05-03T10:19:00.449Z,18.67
2023-05-03T10:21:08.414Z,18.71
2023-05-03T10:23:12.597Z,19.13
2023-05-03T10:25:16.224Z,18.98
2023-05-03T10:27:19.143Z,19.06
2023-05-03T10:29:48.795Z,18.85
2023-05-03T10:31:53.115Z,18.90
2023-05-03T10:33:55.955Z,18.66
2023-05-03T10:35:59.130Z,19.23
2023-05-03T10:38:15.478Z,19.65
2023-05-03T10:40:19.088Z,19.81
2023-05-03T10:42:23.700Z,20.18
2023-05-03T10:44:27.515Z,20.43
2023-05-03T10:46:35.860Z,18.95
2023-05-03T10:48:41.039Z,18.57
2023-05-03T10:50:44.248Z,18.78
2023-05-03T10:52:48.692Z,19.58
2023-05-03T10:54:52.473Z,20.24
2023-05-03T10:56:57.462Z,20.67
2023-05-03T10:59:00.227Z,21.04
2023-05-03T11:01:04.091Z,21.29
2023-05-03T11:03:35.621Z,20.95
2023-05-03T11:05:40.897Z,20.45
2023-05-03T11:07:43.639Z,21.07
2023-05-03T11:09:47.652Z,21.32
2023-05-03T11:11:50.556Z,21.27
2023-05-03T11:13:54.161Z,21.12
2023-05-03T11:15:57.465Z,21.57
2023-05-03T11:18:00.571Z,21.95
2023-05-03T11:20:03.957Z,21.82
2023-05-03T11:22:08.068Z,22.32
2023-05-03T11:24:10.946Z,22.34
2023-05-03T11:26:14.993Z,22.01
2023-05-03T11:28:17.759Z,21.75
2023-05-03T11:30:20.580Z,22.06
2023-05-03T11:32:23.464Z,21.77
2023-05-03T11:34:26.425Z,22.27
2023-05-03T11:36:30.607Z,22.99
2023-05-03T11:38:35.516Z,22.59
2023-05-03T11:40:39.629Z,22.66
2023-05-03T11:42:52.144Z,22.97
2023-05-03T11:44:55.201Z,23.09
2023-05-03T11:46:58.357Z,23.57
2023-05-03T11:49:02.273Z,23.46
2023-05-03T11:51:10.950Z,23.83
2023-05-03T11:53:14.062Z,24.33
2023-05-03T11:55:18.164Z,24.15
2023-05-03T11:57:21.827Z,24.28
2023-05-03T11:59:35.845Z,23.88
2023-05-03T12:01:38.793Z,24.47
2023-05-03T12:03:41.684Z,24.38
2023-05-03T12:05:45.120Z,24.43
2023-05-03T12:07:48.327Z,24.99
2023-05-03T12:10:09.487Z,24.15
2023-05-03T12:12:26.638Z,25.11
2023-05-03T12:14:58.288Z,25.45
2023-05-03T12:17:01.404Z,25.94
2023-05-03T12:19:04.577Z,25.99
2023-05-03T12:21:30.729Z,25.99
2023-05-03T12:23:30.325Z,24.49
2023-05-03T12:25:34.777Z,22.65
2023-05-03T12:27:40.900Z,22.76
2023-05-03T12:29:46.159Z,22.81
2023-05-03T12:31:50.092Z,22.74
2023-05-03T12:35:59.540Z,25.09
2023-05-03T12:38:03.974Z,25.62
2023-05-03T12:40:31.583Z,24.84
2023-05-03T12:42:33.795Z,25.24
2023-05-03T12:44:42.872Z,25.67
2023-05-03T12:46:46.202Z,25.66
2023-05-03T12:48:49.954Z,25.75
2023-05-03T12:51:13.740Z,25.79
2023-05-03T12:53:18.966Z,25.93
2023-05-03T12:55:25.360Z,26.51
2023-05-03T12:57:30.588Z,26.66
2023-05-03T12:59:41.248Z,26.17
2023-05-03T13:03:09.826Z,25.80
2023-05-03T13:04:30.591Z,23.71
2023-05-03T13:06:41.273Z,22.97
2023-05-03T13:08:50.037Z,22.76
2023-05-03T13:10:53.709Z,23.05
2023-05-03T13:12:56.902Z,24.21
2023-05-03T13:15:00.257Z,24.22
2023-05-03T13:17:04.596Z,25.02
2023-05-03T13:19:07.509Z,25.50
2023-05-03T13:21:11.397Z,25.24
2023-05-03T13:23:14.103Z,23.84
2023-05-03T13:25:17.067Z,24.03
2023-05-03T13:27:19.963Z,24.33
2023-05-03T13:29:24.082Z,23.31
2023-05-03T13:31:30.138Z,22.97
2023-05-03T13:33:37.950Z,23.34
2023-05-03T13:35:40.812Z,22.94
2023-05-03T13:37:43.690Z,22.56
2023-05-03T13:39:46.555Z,22.64
2023-05-03T13:41:49.481Z,22.56
2023-05-03T13:43:53.015Z,23.48
2023-05-03T13:46:01.505Z,23.20
2023-05-03T13:48:15.136Z,23.17
2023-05-03T13:50:23.058Z,24.76
2023-05-03T13:52:25.965Z,24.16
2023-05-03T13:54:30.112Z,24.76
2023-05-03T13:56:34.889Z,25.06
2023-05-03T13:58:39.628Z,25.01
2023-05-03T14:00:42.410Z,25.01
2023-05-03T14:02:45.197Z,25.87
2023-05-03T14:04:47.958Z,25.15
2023-05-03T14:06:52.183Z,24.99
2023-05-03T14:08:56.555Z,25.23
2023-05-03T14:11:00.216Z,25.22
2023-05-03T14:13:03.602Z,25.24
2023-05-03T14:15:07.690Z,24.94
2023-05-03T14:17:11.137Z,25.24
2023-05-03T14:19:15.415Z,25.71
2023-05-03T14:21:19.383Z,25.36
2023-05-03T14:23:24.454Z,25.17
2023-05-03T14:25:28.002Z,25.11
2023-05-03T14:27:30.846Z,26.08
2023-05-03T14:29:34.642Z,26.43
2023-05-03T14:31:37.520Z,26.31
2023-05-03T14:33:41.077Z,25.31
2023-05-03T14:35:43.985Z,26.16
2023-05-03T14:37:47.073Z,26.96
2023-05-03T14:39:52.203Z,27.51
2023-05-03T14:41:56.373Z,26.07
2023-05-03T14:43:59.472Z,26.81
2023-05-03T14:46:02.340Z,26.83
2023-05-03T14:48:06.075Z,26.94
2023-05-03T14:50:10.286Z,26.94
2023-05-03T14:52:13.330Z,27.43
2023-05-03T14:54:16.453Z,27.85
2023-05-03T14:56:21.138Z,27.36
2023-05-03T14:58:23.939Z,27.26
2023-05-03T15:00:26.773Z,27.31
2023-05-03T15:02:30.012Z,28.14
2023-05-03T15:04:35.094Z,28.08
2023-05-03T15:06:42.845Z,27.85
2023-05-03T15:08:45.918Z,28.21
2023-05-03T15:10:48.795Z,28.05
2023-05-03T15:12:53.155Z,27.60
2023-05-03T15:14:55.941Z,28.24
2023-05-03T15:16:58.743Z,26.20
2023-05-03T15:19:01.937Z,26.41
2023-05-03T15:21:05.236Z,25.39
2023-05-03T15:23:08.138Z,26.04
2023-05-03T15:25:11.621Z,26.32
2023-05-03T15:27:14.579Z,27.00
2023-05-03T15:29:18.710Z,28.27
2023-05-03T15:31:21.741Z,28.08
2023-05-03T15:33:24.681Z,28.49
2023-05-03T15:35:27.874Z,28.63
2023-05-03T15:37:36.931Z,27.93
2023-05-03T15:39:39.978Z,27.81
2023-05-03T15:41:45.465Z,27.95
2023-05-03T15:43:48.272Z,26.27
2023-05-03T15:45:52.508Z,25.38
2023-05-03T15:47:56.055Z,27.17
2023-05-03T15:49:58.879Z,27.07
2023-05-03T15:52:01.613Z,27.85
2023-05-03T15:54:04.748Z,27.21
2023-05-03T15:56:09.118Z,26.66
2023-05-03T15:58:11.972Z,26.30
2023-05-03T16:00:17.747Z,26.13
2023-05-03T16:02:21.992Z,27.16
2023-05-03T16:04:25.140Z,28.07
2023-05-03T16:06:28.380Z,28.67
2023-05-03T16:08:31.540Z,28.22
2023-05-03T16:10:34.416Z,28.13
2023-05-03T16:12:37.420Z,28.44
2023-05-03T16:14:40.426Z,27.94
2023-05-03T16:16:45.058Z,27.09
2023-05-03T16:18:49.229Z,26.86
2023-05-03T16:20:52.449Z,26.37
2023-05-03T16:22:55.548Z,25.85
2023-05-03T16:24:58.304Z,25.92
2023-05-03T16:27:01.855Z,25.04
2023-05-03T16:29:05.642Z,24.84
2023-05-03T16:31:08.565Z,25.38
2023-05-03T16:33:11.841Z,25.25
2023-05-03T16:35:16.011Z,25.91
2023-05-03T16:37:19.215Z,26.64
2023-05-03T16:39:22.130Z,26.42
2023-05-03T16:41:25.315Z,27.27
2023-05-03T16:43:28.500Z,27.29
2023-05-03T16:45:31.335Z,27.34
2023-05-03T16:47:34.962Z,27.14
2023-05-03T16:49:37.970Z,27.25
2023-05-03T16:51:42.121Z,27.42
2023-05-03T16:53:45.040Z,28.76
2023-05-03T16:55:47.866Z,27.67
2023-05-03T16:57:50.847Z,29.01
2023-05-03T16:59:53.571Z,28.79
2023-05-03T17:01:56.417Z,29.48
2023-05-03T17:03:59.231Z,29.37
2023-05-03T17:06:03.735Z,29.04
2023-05-03T17:08:09.009Z,27.06
2023-05-03T17:10:12.738Z,29.07
2023-05-03T17:12:16.311Z,28.44
2023-05-03T17:14:19.136Z,28.54
2023-05-03T17:16:22.998Z,27.41
2023-05-03T17:18:34.623Z,27.74
2023-05-03T17:20:37.808Z,27.39
2023-05-03T17:22:40.529Z,27.33
2023-05-03T17:24:44.676Z,27.69
2023-05-03T17:26:47.406Z,28.37
2023-05-03T17:28:50.172Z,27.72
2023-05-03T17:30:55.035Z,27.32
2023-05-03T17:32:57.873Z,26.93
2023-05-03T17:35:00.655Z,28.19
2023-05-03T17:37:03.667Z,28.34
2023-05-03T17:39:06.429Z,28.48
2023-05-03T17:41:11.528Z,28.68
2023-05-03T17:43:16.490Z,27.86
2023-05-03T17:45:19.427Z,27.40
2023-05-03T17:47:22.832Z,27.60
2023-05-03T17:49:26.135Z,27.45
2023-05-03T17:51:32.006Z,27.14
2023-05-03T17:53:35.054Z,26.69
2023-05-03T17:55:38.820Z,26.07
2023-05-03T17:57:45.596Z,26.46
2023-05-03T17:59:48.712Z,25.55
2023-05-03T18:01:51.525Z,24.33
2023-05-03T18:03:54.538Z,24.13
2023-05-03T18:05:57.388Z,23.67
2023-05-03T18:08:00.155Z,22.51
2023-05-03T18:10:03.086Z,20.81
2023-05-03T18:12:06.448Z,20.55
2023-05-03T18:14:11.577Z,20.48
2023-05-03T18:16:14.437Z,20.43
2023-05-03T18:18:17.330Z,20.61
2023-05-03T18:20:20.215Z,19.55
2023-05-03T18:22:23.346Z,19.62
2023-05-03T18:24:26.518Z,19.81
2023-05-03T18:26:29.355Z,19.57
2023-05-03T18:28:32.103Z,18.76
2023-05-03T18:30:36.231Z,18.78
2023-05-03T18:32:39.087Z,18.42
2023-05-03T18:34:41.961Z,18.34
2023-05-03T18:36:44.722Z,17.63
2023-05-03T18:38:48.600Z,18.27
2023-05-03T18:40:51.615Z,18.38
2023-05-03T18:42:54.423Z,17.51
2023-05-03T18:44:57.395Z,17.18
2023-05-03T18:47:01.583Z,17.40
2023-05-03T18:49:04.903Z,17.73
2023-05-03T18:51:08.231Z,17.71
2023-05-03T18:53:11.446Z,17.48
2023-05-03T18:55:14.204Z,17.28
2023-05-03T18:57:17.417Z,17.00
2023-05-03T18:59:20.228Z,16.43
2023-05-03T19:01:23.173Z,16.34
2023-05-03T19:03:28.073Z,16.62
2023-05-03T19:05:30.854Z,16.43
2023-05-03T19:07:33.690Z,15.58
2023-05-03T19:09:40.272Z,15.91
2023-05-03T19:11:44.083Z,16.22
2023-05-03T19:13:47.334Z,15.99
2023-05-03T19:15:50.186Z,15.99
2023-05-03T19:17:53.152Z,15.52
2023-05-03T19:19:57.385Z,16.17
2023-05-03T19:22:00.175Z,16.31
2023-05-03T19:24:03.838Z,14.85
2023-05-03T19:26:07.117Z,16.00
2023-05-03T19:28:11.535Z,15.08
2023-05-03T19:30:14.779Z,15.11
2023-05-03T19:32:17.529Z,15.88
2023-05-03T19:34:20.336Z,15.91
2023-05-03T19:36:24.462Z,15.96
2023-05-03T19:38:27.450Z,15.88
2023-05-03T19:40:30.216Z,15.75
2023-05-03T19:42:32.957Z,15.04
2023-05-03T19:44:35.882Z,14.67
2023-05-03T19:46:38.869Z,15.22
2023-05-03T19:48:41.726Z,15.58
2023-05-03T19:50:44.617Z,15.60
2023-05-03T19:52:52.508Z,15.09
2023-05-03T19:54:56.328Z,15.33
2023-05-03T19:56:59.031Z,15.16
2023-05-03T19:59:01.821Z,14.83
2023-05-03T20:01:05.037Z,14.72
2023-05-03T20:03:07.905Z,15.01
2023-05-03T20:05:10.901Z,14.89
2023-05-03T20:07:13.695Z,14.28
2023-05-03T20:09:17.980Z,14.69
2023-05-03T20:11:20.850Z,14.72
2023-05-03T20:13:25.856Z,14.61
2023-05-03T20:15:28.752Z,14.62
2023-05-03T20:17:31.581Z,14.09
2023-05-03T20:19:34.461Z,14.25
2023-05-03T20:21:37.288Z,14.71
2023-05-03T20:23:40.030Z,14.50
2023-05-03T20:25:44.335Z,13.13
2023-05-03T20:27:47.335Z,14.45
2023-05-03T20:29:50.095Z,14.64
2023-05-03T20:31:53.446Z,14.24
2023-05-03T20:33:56.738Z,14.59
2023-05-03T20:35:59.528Z,14.32
2023-05-03T20:38:02.414Z,13.93
2023-05-03T20:40:06.415Z,14.29
2023-05-03T20:42:10.738Z,13.58
2023-05-03T20:44:13.748Z,14.25
2023-05-03T20:46:16.910Z,14.21
2023-05-03T20:48:20.564Z,14.10
2023-05-03T20:50:23.463Z,13.80
2023-05-03T20:52:26.485Z,14.05
2023-05-03T20:54:29.361Z,13.55
2023-05-03T20:56:33.132Z,14.01
2023-05-03T20:58:37.434Z,13.83
2023-05-03T21:00:40.282Z,13.91
2023-05-03T21:02:43.239Z,13.91
2023-05-03T21:04:46.126Z,13.36
2023-05-03T21:06:49.170Z,13.82
2023-05-03T21:08:52.894Z,13.87
2023-05-03T21:10:55.675Z,13.83
2023-05-03T21:12:58.604Z,13.11
2023-05-03T21:15:03.172Z,13.71
2023-05-03T21:17:06.524Z,13.63
2023-05-03T21:19:09.269Z,13.28
2023-05-03T21:21:11.961Z,13.06
2023-05-03T21:23:14.665Z,12.36
2023-05-03T21:25:17.447Z,12.58
2023-05-03T21:27:21.998Z,12.57
2023-05-03T21:29:24.802Z,11.69
2023-05-03T21:31:28.987Z,12.49
2023-05-03T21:33:31.784Z,12.64
2023-05-03T21:35:35.614Z,12.52
2023-05-03T21:37:38.443Z,12.06
2023-05-03T21:39:45.238Z,12.34
2023-05-03T21:41:53.468Z,12.40
2023-05-03T21:43:56.302Z,12.17
2023-05-03T21:45:59.441Z,12.09
2023-05-03T21:48:03.565Z,11.46
2023-05-03T21:50:07.809Z,12.02
2023-05-03T21:52:10.813Z,11.17
2023-05-03T21:54:13.600Z,12.21
2023-05-03T21:56:16.593Z,12.09
2023-05-03T21:58:19.342Z,11.84
2023-05-03T22:00:22.326Z,11.71
2023-05-03T22:02:25.594Z,9.82
2023-05-03T22:04:30.806Z,11.65
2023-05-03T22:06:33.604Z,11.40
2023-05-03T22:08:36.530Z,11.17
2023-05-03T22:10:39.323Z,8.67
2023-05-03T22:12:42.143Z,9.62
2023-05-03T22:14:45.000Z,10.65
2023-05-03T22:16:47.745Z,9.80
2023-05-03T22:18:50.537Z,11.19
2023-05-03T22:20:54.577Z,11.42
2023-05-03T22:22:57.739Z,10.13
2023-05-03T22:25:02.473Z,10.94
2023-05-03T22:27:05.370Z,11.33
2023-05-03T22:29:08.569Z,11.43
2023-05-03T22:31:13.403Z,11.18
2023-05-03T22:33:16.184Z,11.49
2023-05-03T22:35:19.089Z,11.11
2023-05-03T22:37:23.113Z,11.15
2023-05-03T22:39:25.827Z,11.27
2023-05-03T22:41:28.554Z,9.29
2023-05-03T22:43:31.458Z,10.45
2023-05-03T22:45:34.462Z,10.78
2023-05-03T22:47:37.398Z,11.41
2023-05-03T22:49:40.109Z,11.21
2023-05-03T22:51:42.794Z,10.85
2023-05-03T22:53:46.923Z,10.13
2023-05-03T22:55:56.499Z,11.32
2023-05-03T22:57:59.198Z,10.89
2023-05-03T23:00:02.257Z,9.27
2023-05-03T23:02:05.216Z,11.44
2023-05-03T23:04:07.926Z,11.02
2023-05-03T23:06:10.792Z,10.94
2023-05-03T23:08:14.202Z,10.77
2023-05-03T23:10:18.511Z,10.56
2023-05-03T23:12:21.237Z,11.26
2023-05-03T23:14:24.070Z,11.34
2023-05-03T23:16:27.028Z,10.67
2023-05-03T23:18:29.782Z,11.00
2023-05-03T23:20:32.800Z,11.11
2023-05-03T23:22:35.703Z,10.05
2023-05-03T23:24:39.510Z,11.03
2023-05-03T23:26:43.619Z,11.08
2023-05-03T23:28:48.636Z,10.80
2023-05-03T23:30:52.110Z,9.79
2023-05-03T23:32:55.125Z,10.98
2023-05-03T23:34:58.245Z,9.80
2023-05-03T23:37:01.022Z,11.04
2023-05-03T23:39:04.433Z,10.63
2023-05-03T23:41:07.263Z,10.98
2023-05-03T23:43:11.407Z,10.62
2023-05-03T23:45:14.120Z,7.94
2023-05-03T23:47:16.916Z,10.94
2023-05-03T23:49:20.046Z,11.01
2023-05-03T23:51:22.879Z,10.75
2023-05-03T23:53:25.758Z,10.84
2023-05-03T23:55:28.530Z,10.88
2023-05-03T23:57:31.282Z,10.91
2023-05-03T23:59:35.365Z,10.22
